createdAt,value
2022-09-11T00:01:35.233Z,15.40
2022-09-11T00:04:03.843Z,15.40
2022-09-11T00:06:31.218Z,15.30
2022-09-11T00:09:01.806Z,15.70
2022-09-11T00:11:33.044Z,15.50
2022-09-11T00:14:01.123Z,15.60
2022-09-11T00:16:29.559Z,15.40
2022-09-11T00:19:03.952Z,15.50
2022-09-11T00:21:31.335Z,15.80
2022-09-11T00:23:59.020Z,15.50
2022-09-11T00:26:26.378Z,15.40
2022-09-11T00:28:55.210Z,15.80
2022-09-11T00:31:25.883Z,15.60
2022-09-11T00:33:53.989Z,15.80
2022-09-11T00:36:24.406Z,15.50
2022-09-11T00:38:52.330Z,15.60
2022-09-11T00:41:36.293Z,16.00
2022-09-11T00:44:16.877Z,15.50
2022-09-11T00:47:00.239Z,15.40
2022-09-11T00:49:40.768Z,15.30
2022-09-11T00:52:23.013Z,15.20
2022-09-11T00:54:57.362Z,15.30
2022-09-11T00:57:28.768Z,15.50
2022-09-11T00:59:59.499Z,15.80
2022-09-11T01:02:30.031Z,15.40
2022-09-11T01:04:58.337Z,15.70
2022-09-11T01:07:26.835Z,15.70
2022-09-11T01:09:55.876Z,15.50
2022-09-11T01:12:36.595Z,15.50
2022-09-11T01:15:08.818Z,15.50
2022-09-11T01:17:58.118Z,15.60
2022-09-11T01:20:35.547Z,15.40
2022-09-11T01:23:32.127Z,15.40
2022-09-11T01:26:24.669Z,15.40
2022-09-11T01:29:06.429Z,15.40
2022-09-11T01:31:41.519Z,15.40
2022-09-11T01:34:25.975Z,15.30
2022-09-11T01:37:08.396Z,15.40
2022-09-11T01:39:44.996Z,15.20
2022-09-11T01:42:17.782Z,15.20
2022-09-11T01:44:52.800Z,15.10
2022-09-11T01:47:21.138Z,15.10
2022-09-11T01:50:05.272Z,15.10
2022-09-11T01:52:41.951Z,14.90
2022-09-11T01:55:17.517Z,15.10
2022-09-11T01:58:07.134Z,14.90
2022-09-11T02:00:39.472Z,15.00
2022-09-11T02:03:14.297Z,15.20
2022-09-11T02:05:51.625Z,14.90
2022-09-11T02:08:44.159Z,15.00
2022-09-11T02:11:14.303Z,15.10
2022-09-11T02:14:06.400Z,15.20
2022-09-11T02:16:51.631Z,15.20
2022-09-11T02:19:25.974Z,15.20
2022-09-11T02:21:53.492Z,15.30
2022-09-11T02:24:22.837Z,15.30
2022-09-11T02:27:00.684Z,15.30
2022-09-11T02:29:31.321Z,15.30
2022-09-11T02:32:00.873Z,15.40
2022-09-11T02:34:32.687Z,15.40
2022-09-11T02:37:18.963Z,15.20
2022-09-11T02:40:19.484Z,15.00
2022-09-11T02:43:19.384Z,14.90
2022-09-11T02:46:16.530Z,14.80
2022-09-11T02:48:53.777Z,15.10
2022-09-11T02:51:46.785Z,15.00
2022-09-11T02:54:40.858Z,14.80
2022-09-11T02:57:25.159Z,14.70
2022-09-11T03:00:06.499Z,14.80
2022-09-11T03:02:37.528Z,14.90
2022-09-11T03:05:06.349Z,14.90
2022-09-11T03:07:34.114Z,14.90
2022-09-11T03:10:01.782Z,14.70
2022-09-11T03:12:30.702Z,14.80
2022-09-11T03:14:57.960Z,15.00
2022-09-11T03:17:25.533Z,14.80
2022-09-11T03:19:53.055Z,14.60
2022-09-11T03:22:20.232Z,14.50
2022-09-11T03:24:48.257Z,14.40
2022-09-11T03:27:16.009Z,14.60
2022-09-11T03:29:44.906Z,14.40
2022-09-11T03:32:12.365Z,14.20
2022-09-11T03:34:39.746Z,14.40
2022-09-11T03:37:08.336Z,14.40
2022-09-11T03:39:35.927Z,14.50
2022-09-11T03:42:03.525Z,14.40
2022-09-11T03:44:30.695Z,14.40
2022-09-11T03:46:57.980Z,14.60
2022-09-11T03:49:25.716Z,14.50
2022-09-11T03:51:52.873Z,14.70
2022-09-11T03:54:21.017Z,14.60
2022-09-11T03:56:49.109Z,14.40
2022-09-11T03:59:16.494Z,14.40
2022-09-11T04:01:45.165Z,14.30
2022-09-11T04:04:16.115Z,14.40
2022-09-11T04:06:44.399Z,14.20
2022-09-11T04:09:12.051Z,14.30
2022-09-11T04:11:40.220Z,14.60
2022-09-11T04:14:14.613Z,14.30
2022-09-11T04:16:43.316Z,14.40
2022-09-11T04:19:13.311Z,14.30
2022-09-11T04:21:42.653Z,14.50
2022-09-11T04:24:10.441Z,14.60
2022-09-11T04:26:37.842Z,14.40
2022-09-11T04:29:22.576Z,14.70
2022-09-11T04:31:51.310Z,14.50
2022-09-11T04:34:19.052Z,14.80
2022-09-11T04:36:46.492Z,14.50
2022-09-11T04:39:20.106Z,14.80
2022-09-11T04:41:49.200Z,14.80
2022-09-11T04:44:17.032Z,15.00
2022-09-11T04:46:45.314Z,14.70
2022-09-11T04:49:13.076Z,15.00
2022-09-11T04:51:41.157Z,14.90
2022-09-11T04:54:16.588Z,14.70
2022-09-11T04:56:44.168Z,15.10
2022-09-11T04:59:15.955Z,15.10
2022-09-11T05:01:48.842Z,15.30
2022-09-11T05:04:25.796Z,15.20
2022-09-11T05:06:54.942Z,15.20
2022-09-11T05:09:22.202Z,15.00
2022-09-11T05:11:50.436Z,15.20
2022-09-11T05:14:18.537Z,15.30
2022-09-11T05:16:48.576Z,15.10
2022-09-11T05:19:19.144Z,15.00
2022-09-11T05:21:48.153Z,15.20
2022-09-11T05:24:15.393Z,15.30
2022-09-11T05:26:43.218Z,15.40
2022-09-11T05:29:14.897Z,15.00
2022-09-11T05:32:03.573Z,15.40
2022-09-11T05:34:30.845Z,15.20
2022-09-11T05:36:59.207Z,15.30
2022-09-11T05:39:29.982Z,15.50
2022-09-11T05:41:58.551Z,15.30
2022-09-11T05:44:31.063Z,15.50
2022-09-11T05:46:58.893Z,15.70
2022-09-11T05:49:26.953Z,15.40
2022-09-11T05:51:54.322Z,15.70
2022-09-11T05:54:21.636Z,15.70
2022-09-11T05:56:49.065Z,16.20
2022-09-11T05:59:23.486Z,16.10
2022-09-11T06:01:51.637Z,15.70
2022-09-11T06:04:29.023Z,15.80
2022-09-11T06:06:58.730Z,15.80
2022-09-11T06:09:27.288Z,15.70
2022-09-11T06:11:55.144Z,15.80
2022-09-11T06:14:22.330Z,15.60
2022-09-11T06:16:51.489Z,15.70
2022-09-11T06:19:19.780Z,15.80
2022-09-11T06:21:47.157Z,15.80
2022-09-11T06:24:23.566Z,15.70
2022-09-11T06:26:51.361Z,15.80
2022-09-11T06:29:19.488Z,15.80
2022-09-11T06:31:51.454Z,15.90
2022-09-11T06:34:22.421Z,15.80
2022-09-11T06:36:52.317Z,16.00
2022-09-11T06:39:23.068Z,16.00
2022-09-11T06:41:53.902Z,16.20
2022-09-11T06:44:27.551Z,16.30
2022-09-11T06:46:57.619Z,16.50
2022-09-11T06:49:25.802Z,16.60
2022-09-11T06:52:11.597Z,16.90
2022-09-11T06:54:41.612Z,17.50
2022-09-11T06:57:14.195Z,17.50
2022-09-11T06:59:43.140Z,17.50
2022-09-11T07:02:12.705Z,17.10
2022-09-11T07:04:40.153Z,16.70
2022-09-11T07:07:07.915Z,16.50
2022-09-11T07:09:37.593Z,16.40
2022-09-11T07:12:05.391Z,16.70
2022-09-11T07:14:33.006Z,16.30
2022-09-11T07:17:10.530Z,16.70
2022-09-11T07:19:39.134Z,16.80
2022-09-11T07:22:06.512Z,16.90
2022-09-11T07:24:35.362Z,16.50
2022-09-11T07:27:02.710Z,16.50
2022-09-11T07:29:34.492Z,16.00
2022-09-11T07:32:02.321Z,15.80
2022-09-11T07:34:29.762Z,15.90
2022-09-11T07:37:00.293Z,16.10
2022-09-11T07:39:28.027Z,16.10
2022-09-11T07:42:07.377Z,16.80
2022-09-11T07:44:35.876Z,17.50
2022-09-11T07:47:04.174Z,18.00
2022-09-11T07:49:36.772Z,18.30
2022-09-11T07:52:05.256Z,18.30
2022-09-11T07:54:44.952Z,18.00
2022-09-11T07:57:14.840Z,18.00
2022-09-11T07:59:42.834Z,18.00
2022-09-11T08:02:11.733Z,17.80
2022-09-11T08:04:39.606Z,17.60
2022-09-11T08:07:06.807Z,17.60
2022-09-11T08:09:36.398Z,17.80
2022-09-11T08:12:06.387Z,17.50
2022-09-11T08:14:37.001Z,16.80
2022-09-11T08:17:13.721Z,16.10
2022-09-11T08:19:41.971Z,16.30
2022-09-11T08:22:09.103Z,16.40
2022-09-11T08:24:42.870Z,16.60
2022-09-11T08:27:12.737Z,16.50
2022-09-11T08:29:42.290Z,15.90
2022-09-11T08:32:10.527Z,16.60
2022-09-11T08:34:39.460Z,17.00
2022-09-11T08:37:06.855Z,17.70
2022-09-11T08:39:35.883Z,17.60
2022-09-11T08:42:15.096Z,17.40
2022-09-11T08:44:54.105Z,17.60
2022-09-11T08:47:46.595Z,17.60
2022-09-11T08:50:36.087Z,17.80
2022-09-11T08:53:04.198Z,18.00
2022-09-11T08:55:43.885Z,18.00
2022-09-11T08:58:33.607Z,17.90
2022-09-11T09:01:26.173Z,17.90
2022-09-11T09:04:19.055Z,18.10
2022-09-11T09:07:01.660Z,18.20
2022-09-11T09:09:43.041Z,19.20
2022-09-11T09:12:35.464Z,20.50
2022-09-11T09:15:11.467Z,20.40
2022-09-11T09:17:41.486Z,20.60
2022-09-11T09:20:16.491Z,20.20
2022-09-11T09:22:47.357Z,19.50
2022-09-11T09:25:19.960Z,19.00
2022-09-11T09:27:50.964Z,19.00
2022-09-11T09:30:24.728Z,19.00
2022-09-11T09:33:11.403Z,19.30
2022-09-11T09:35:43.202Z,19.30
2022-09-11T09:38:21.801Z,19.90
2022-09-11T09:41:00.164Z,19.70
2022-09-11T09:43:48.701Z,19.50
2022-09-11T09:46:42.254Z,19.70
2022-09-11T09:49:19.185Z,19.90
2022-09-11T09:51:46.306Z,19.10
2022-09-11T09:54:20.811Z,19.20
2022-09-11T09:57:00.304Z,19.10
2022-09-11T09:59:53.316Z,19.30
2022-09-11T10:02:55.152Z,19.10
2022-09-11T10:05:30.613Z,19.40
2022-09-11T10:08:03.809Z,20.00
2022-09-11T10:10:36.450Z,20.70
2022-09-11T10:13:25.073Z,20.60
2022-09-11T10:15:55.906Z,20.90
2022-09-11T10:18:45.219Z,21.80
2022-09-11T10:21:12.713Z,22.70
2022-09-11T10:23:58.011Z,24.20
2022-09-11T10:26:49.794Z,26.30
2022-09-11T10:29:25.744Z,24.70
2022-09-11T10:31:57.754Z,23.00
2022-09-11T10:34:28.088Z,22.20
2022-09-11T10:37:07.620Z,21.70
2022-09-11T10:39:36.912Z,21.30
2022-09-11T10:42:25.909Z,20.70
2022-09-11T10:44:57.405Z,20.40
2022-09-11T10:47:27.649Z,19.90
2022-09-11T10:50:31.009Z,20.10
2022-09-11T10:52:58.419Z,21.00
2022-09-11T10:55:30.594Z,21.40
2022-09-11T10:58:09.040Z,21.40
2022-09-11T11:00:38.681Z,21.40
2022-09-11T11:03:17.656Z,21.40
2022-09-11T11:05:50.560Z,21.00
2022-09-11T11:08:39.476Z,20.60
2022-09-11T11:11:42.593Z,20.50
2022-09-11T11:14:15.602Z,20.80
2022-09-11T11:17:15.769Z,20.80
2022-09-11T11:20:07.550Z,20.80
2022-09-11T11:22:49.829Z,21.10
2022-09-11T11:25:22.911Z,21.70
2022-09-11T11:27:56.013Z,22.50
2022-09-11T11:30:36.635Z,22.50
2022-09-11T11:33:09.731Z,22.50
2022-09-11T11:35:48.928Z,22.50
2022-09-11T11:38:29.073Z,22.50
2022-09-11T11:41:25.426Z,22.00
2022-09-11T11:44:16.414Z,21.70
2022-09-11T11:46:48.834Z,21.30
2022-09-11T11:49:20.936Z,20.80
2022-09-11T11:51:57.201Z,20.90
2022-09-11T11:54:37.184Z,21.00
2022-09-11T11:57:12.915Z,20.70
2022-09-11T12:00:01.489Z,20.20
2022-09-11T12:02:49.571Z,20.20
2022-09-11T12:05:24.202Z,20.30
2022-09-11T12:07:52.083Z,20.00
2022-09-11T12:10:24.859Z,20.10
2022-09-11T12:12:56.467Z,19.90
2022-09-11T12:15:33.693Z,19.40
2022-09-11T12:18:11.628Z,19.20
2022-09-11T12:20:41.315Z,19.00
2022-09-11T12:23:32.539Z,18.90
2022-09-11T12:26:08.894Z,18.80
2022-09-11T12:28:37.904Z,18.90
2022-09-11T12:31:11.693Z,19.10
2022-09-11T12:33:43.042Z,19.40
2022-09-11T12:36:24.615Z,19.60
2022-09-11T12:38:57.722Z,19.70
2022-09-11T12:41:28.412Z,19.80
2022-09-11T12:43:56.921Z,20.00
2022-09-11T12:46:24.476Z,19.80
2022-09-11T12:49:20.981Z,20.10
2022-09-11T12:52:00.145Z,20.00
2022-09-11T12:54:42.376Z,20.00
2022-09-11T12:57:19.273Z,20.20
2022-09-11T12:59:53.425Z,20.10
2022-09-11T13:02:23.486Z,20.30
2022-09-11T13:04:52.223Z,20.90
2022-09-11T13:07:45.356Z,22.00
2022-09-11T13:10:46.772Z,22.70
2022-09-11T13:13:35.031Z,24.70
2022-09-11T13:16:21.953Z,26.40
2022-09-11T13:18:49.284Z,25.90
2022-09-11T13:21:22.001Z,25.30
2022-09-11T13:23:52.307Z,24.70
2022-09-11T13:26:31.540Z,24.10
2022-09-11T13:29:01.480Z,24.20
2022-09-11T13:31:49.798Z,24.40
2022-09-11T13:34:20.164Z,24.60
2022-09-11T13:36:52.304Z,24.20
2022-09-11T13:39:22.242Z,23.50
2022-09-11T13:41:53.314Z,22.50
2022-09-11T13:44:52.169Z,21.40
2022-09-11T13:47:24.899Z,20.10
2022-09-11T13:49:55.679Z,19.40
2022-09-11T13:52:26.727Z,19.30
2022-09-11T13:54:57.532Z,19.00
2022-09-11T13:57:28.252Z,18.90
2022-09-11T13:59:57.194Z,18.80
2022-09-11T14:02:28.815Z,18.60
2022-09-11T14:05:09.179Z,18.20
2022-09-11T14:07:47.359Z,18.00
2022-09-11T14:10:25.404Z,18.30
2022-09-11T14:13:04.356Z,19.20
2022-09-11T14:15:52.201Z,19.10
2022-09-11T14:18:22.563Z,19.20
2022-09-11T14:20:50.249Z,19.10
2022-09-11T14:23:24.059Z,19.00
2022-09-11T14:26:17.149Z,19.10
2022-09-11T14:28:55.654Z,18.60
2022-09-11T14:31:37.640Z,18.10
2022-09-11T14:34:11.130Z,18.00
2022-09-11T14:37:07.882Z,17.80
2022-09-11T14:39:39.605Z,17.90
2022-09-11T14:42:18.158Z,17.80
2022-09-11T14:44:48.383Z,18.00
2022-09-11T14:47:22.012Z,17.80
2022-09-11T14:49:51.738Z,17.50
2022-09-11T14:52:22.921Z,17.90
2022-09-11T14:54:50.501Z,18.00
2022-09-11T14:57:26.413Z,18.00
2022-09-11T14:59:54.098Z,18.00
2022-09-11T15:02:23.779Z,17.70
2022-09-11T15:04:54.483Z,17.40
2022-09-11T15:07:23.452Z,17.00
2022-09-11T15:09:52.688Z,16.80
2022-09-11T15:12:21.774Z,17.00
2022-09-11T15:14:57.233Z,16.90
2022-09-11T15:17:31.624Z,16.90
2022-09-11T15:20:00.699Z,16.90
2022-09-11T15:22:28.769Z,17.10
2022-09-11T15:25:00.430Z,17.10
2022-09-11T15:27:28.337Z,16.90
2022-09-11T15:29:55.815Z,17.00
2022-09-11T15:32:23.244Z,16.90
2022-09-11T15:34:51.782Z,17.10
2022-09-11T15:37:19.274Z,16.80
2022-09-11T15:39:46.654Z,16.90
2022-09-11T15:42:14.471Z,17.20
2022-09-11T15:44:41.682Z,17.00
2022-09-11T15:47:09.402Z,17.10
2022-09-11T15:49:47.640Z,16.90
2022-09-11T15:52:15.260Z,16.80
2022-09-11T15:54:45.507Z,16.60
2022-09-11T15:57:13.133Z,16.60
2022-09-11T15:59:41.002Z,16.50
2022-09-11T16:02:10.700Z,16.50
2022-09-11T16:04:38.043Z,16.60
2022-09-11T16:07:05.304Z,16.60
2022-09-11T16:09:33.452Z,16.60
2022-09-11T16:12:02.012Z,16.50
2022-09-11T16:14:33.141Z,16.70
2022-09-11T16:17:02.426Z,16.60
2022-09-11T16:19:30.931Z,16.40
2022-09-11T16:22:01.423Z,16.30
2022-09-11T16:24:31.575Z,16.20
2022-09-11T16:27:00.895Z,16.10
2022-09-11T16:29:58.914Z,15.90
2022-09-11T16:32:28.629Z,16.10
2022-09-11T16:34:57.907Z,16.40
2022-09-11T16:37:26.187Z,16.30
2022-09-11T16:39:53.794Z,16.30
2022-09-11T16:42:21.811Z,16.60
2022-09-11T16:44:50.238Z,16.30
2022-09-11T16:47:18.303Z,16.60
2022-09-11T16:52:34.800Z,16.30
2022-09-11T16:55:04.001Z,16.20
2022-09-11T16:57:32.349Z,16.00
2022-09-11T17:00:00.102Z,15.80
2022-09-11T17:02:30.134Z,16.00
2022-09-11T17:04:57.528Z,15.90
2022-09-11T17:07:25.186Z,15.70
2022-09-11T17:09:53.208Z,15.60
2022-09-11T17:12:22.299Z,15.60
2022-09-11T17:14:50.285Z,15.60
2022-09-11T17:17:17.827Z,15.40
2022-09-11T17:19:45.116Z,15.00
2022-09-11T17:22:12.545Z,15.30
2022-09-11T17:24:44.205Z,14.80
2022-09-11T17:27:11.643Z,14.70
2022-09-11T17:29:43.810Z,14.60
2022-09-11T17:32:31.174Z,14.50
2022-09-11T17:34:58.891Z,14.40
2022-09-11T17:37:27.067Z,14.70
2022-09-11T17:39:54.514Z,14.60
2022-09-11T17:42:22.742Z,14.40
2022-09-11T17:44:50.332Z,14.40
2022-09-11T17:47:17.649Z,14.60
2022-09-11T17:49:45.562Z,14.50
2022-09-11T17:52:13.987Z,14.70
2022-09-11T17:54:42.301Z,14.60
2022-09-11T17:57:09.469Z,14.50
2022-09-11T17:59:37.023Z,14.70
2022-09-11T18:02:04.565Z,14.80
2022-09-11T18:04:32.021Z,14.70
2022-09-11T18:06:59.643Z,15.00
2022-09-11T18:09:27.185Z,14.60
2022-09-11T18:11:54.902Z,14.70
2022-09-11T18:14:23.039Z,14.70
2022-09-11T18:16:50.805Z,14.60
2022-09-11T18:19:21.926Z,14.50
2022-09-11T18:21:50.924Z,14.30
2022-09-11T18:27:07.077Z,14.50
2022-09-11T18:29:35.354Z,14.50
2022-09-11T18:32:03.520Z,14.40
2022-09-11T18:34:31.273Z,14.00
2022-09-11T18:37:00.015Z,14.50
2022-09-11T18:39:27.491Z,14.50
2022-09-11T18:41:55.465Z,14.20
2022-09-11T18:44:25.361Z,14.40
2022-09-11T18:46:54.493Z,14.30
2022-09-11T18:49:42.115Z,14.20
2022-09-11T18:52:10.797Z,14.50
2022-09-11T18:54:38.726Z,14.60
2022-09-11T18:57:06.261Z,14.40
2022-09-11T18:59:33.602Z,14.60
2022-09-11T19:02:01.395Z,14.60
2022-09-11T19:04:29.022Z,14.30
2022-09-11T19:06:56.265Z,14.60
2022-09-11T19:09:46.143Z,14.50
2022-09-11T19:12:15.972Z,14.50
2022-09-11T19:14:43.516Z,14.50
2022-09-11T19:17:10.844Z,14.60
2022-09-11T19:19:38.210Z,14.50
2022-09-11T19:22:05.888Z,14.50
2022-09-11T19:24:33.692Z,14.50
2022-09-11T19:27:00.966Z,14.50
2022-09-11T19:29:28.746Z,14.60
2022-09-11T19:31:56.119Z,14.70
2022-09-11T19:37:12.925Z,14.70
2022-09-11T19:39:40.974Z,14.60
2022-09-11T19:42:09.338Z,14.50
2022-09-11T19:44:37.297Z,14.50
2022-09-11T19:47:04.684Z,14.70
2022-09-11T19:49:33.113Z,14.40
2022-09-11T19:52:01.632Z,14.40
2022-09-11T19:54:30.753Z,14.60
2022-09-11T19:56:57.997Z,14.40
2022-09-11T19:59:25.891Z,14.50
2022-09-11T20:02:12.537Z,14.20
2022-09-11T20:04:40.214Z,14.30
2022-09-11T20:07:07.344Z,14.20
2022-09-11T20:09:35.348Z,14.20
2022-09-11T20:12:03.064Z,14.40
2022-09-11T20:14:30.510Z,14.40
2022-09-11T20:16:57.657Z,14.30
2022-09-11T20:19:25.409Z,14.30
2022-09-11T20:21:54.328Z,14.30
2022-09-11T20:24:21.426Z,14.40
2022-09-11T20:26:53.409Z,14.30
2022-09-11T20:29:20.663Z,14.40
2022-09-11T20:31:51.050Z,14.50
2022-09-11T20:34:19.450Z,14.40
2022-09-11T20:36:47.605Z,14.50
2022-09-11T20:39:16.060Z,14.50
2022-09-11T20:41:44.969Z,14.20
2022-09-11T20:44:12.235Z,14.40
2022-09-11T20:46:40.775Z,14.40
2022-09-11T20:49:08.264Z,14.40
2022-09-11T20:51:35.525Z,14.50
2022-09-11T20:54:04.051Z,14.40
2022-09-11T20:56:34.605Z,14.10
2022-09-11T20:59:01.779Z,14.30
2022-09-11T21:01:32.501Z,14.20
2022-09-11T21:04:01.600Z,14.20
2022-09-11T21:06:31.804Z,14.40
2022-09-11T21:09:01.740Z,14.40
2022-09-11T21:11:30.120Z,14.40
2022-09-11T21:13:57.928Z,14.10
2022-09-11T21:16:25.279Z,14.50
2022-09-11T21:18:55.936Z,14.30
2022-09-11T21:21:25.194Z,14.40
2022-09-11T21:24:04.009Z,14.30
2022-09-11T21:26:33.489Z,14.10
2022-09-11T21:29:03.369Z,14.50
2022-09-11T21:31:30.783Z,14.20
2022-09-11T21:33:58.155Z,14.40
2022-09-11T21:36:26.122Z,14.30
2022-09-11T21:38:53.459Z,14.50
2022-09-11T21:41:20.762Z,14.40
2022-09-11T21:43:48.721Z,14.10
2022-09-11T21:46:16.240Z,14.20
2022-09-11T21:48:43.492Z,14.30
2022-09-11T21:51:14.232Z,14.40
2022-09-11T21:53:44.425Z,14.10
2022-09-11T21:56:25.024Z,14.00
2022-09-11T21:58:53.383Z,14.00
2022-09-11T22:01:22.750Z,14.40
2022-09-11T22:03:50.512Z,14.20
2022-09-11T22:06:20.327Z,14.10
2022-09-11T22:08:47.871Z,14.20
2022-09-11T22:11:16.250Z,14.10
2022-09-11T22:13:44.289Z,14.20
2022-09-11T22:16:13.979Z,14.10
2022-09-11T22:18:41.887Z,13.90
2022-09-11T22:21:10.430Z,14.10
2022-09-11T22:23:38.042Z,13.90
2022-09-11T22:26:11.420Z,14.50
2022-09-11T22:28:39.115Z,14.30
2022-09-11T22:31:12.341Z,14.10
2022-09-11T22:33:41.058Z,14.30
2022-09-11T22:36:10.853Z,14.40
2022-09-11T22:38:38.122Z,13.90
2022-09-11T22:41:05.967Z,14.40
2022-09-11T22:43:33.254Z,13.90
2022-09-11T22:46:00.560Z,14.50
2022-09-11T22:48:28.320Z,14.20
2022-09-11T22:50:57.549Z,14.30
2022-09-11T22:53:26.105Z,13.80
2022-09-11T22:55:54.063Z,13.70
2022-09-11T22:58:21.972Z,14.10
2022-09-11T23:00:50.277Z,13.80
2022-09-11T23:03:18.539Z,14.20
2022-09-11T23:06:04.540Z,13.90
2022-09-11T23:08:39.065Z,14.10
2022-09-11T23:11:07.347Z,14.00
2022-09-11T23:13:35.187Z,14.30
2022-09-11T23:16:13.361Z,14.30
2022-09-11T23:18:41.515Z,13.80
2022-09-11T23:21:09.471Z,13.90
2022-09-11T23:23:40.976Z,13.90
2022-09-11T23:26:09.695Z,13.70
2022-09-11T23:28:37.844Z,13.50
2022-09-11T23:31:11.385Z,13.90
2022-09-11T23:33:38.762Z,13.40
2022-09-11T23:36:11.362Z,13.40
2022-09-11T23:38:38.924Z,13.00
2022-09-11T23:41:07.421Z,13.20
2022-09-11T23:43:34.732Z,13.00
2022-09-11T23:46:02.513Z,12.90
2022-09-11T23:48:30.130Z,12.60
2022-09-11T23:50:57.358Z,12.60
2022-09-11T23:53:24.443Z,12.80
2022-09-11T23:55:51.898Z,12.60
2022-09-11T23:58:19.063Z,12.30
